Racecast

Gregory Pope

Track 757 (VA) · - · Compare head to head

Athlete rating
Races 51
Seasons 5 2021 — 2026
Speed rating — all races

Track & Field

TF speed rating

2026 TF

Track 757 (VA) · Grade -

Date Meet Event Result Place Rating Difficulty PR/SR Flags
2026-05-30 Va Beach Flames Invite discus DNS -0.023
2026-05-30 Va Beach Flames Invite shot 19' 4" -0.023
2026-05-24 HR Hurricanes CAT 5 Invite shot 18' 0" -0.035
2026-05-24 HR Hurricanes CAT 5 Invite discus 38' 3" -0.035
2026-01-11 Lighting Track Classic shot 5.78m -0.036
2025-12-21 Grant Holloway Invite shot 6.02m -0.036

2024 TF

Track 757 (VA) · Grade 11

Date Meet Event Result Place Rating Difficulty PR/SR Flags
2024-04-20 Darius Dixon Invite hj DNS -0.019
2024-03-03 AAU Indoor National Champonships hj DNS -0.036
2024-01-28 2024 Track757 Indoor Invitational hj 1.07m -0.036
2024-01-28 2024 Track757 Indoor Invitational 60m 9.69 51st · 5th on team -0.036 ★PR SR
2024-01-28 2024 Track757 Indoor Invitational 200m 32.47 31st · 3rd on team -0.036
2024-01-06 BWSP Queens and Kings hj 3' 8" -0.024
2024-01-06 BWSP Queens and Kings 200m 32.06 20th · 2nd on team -0.024 ★PR SR
2023-12-17 2023 Grant Holloway AAU Invitational hj 1.07m -0.036
2023-12-17 2023 Grant Holloway AAU Invitational 60m 9.97 48th · 4th on team -0.036 PR SR
2023-12-02 The Virginia Beast HS Invitational hj NH -0.036
2023-12-02 The Virginia Beast HS Invitational 200m 32.58 11th · 1st on team -0.036 PR SR
2023-12-02 The Virginia Beast HS Invitational 55m 8.82 18th · 2nd on team -0.036 ★PR SR

2023 TF

Track 757 (VA) · Grade 10

Date Meet Event Result Place Rating Difficulty PR/SR Flags
2023-01-29 The TRACK 757 Invitational 60m 10.22 45th · 4th on team -0.036 PR SR

2022 TF

Track 757 (VA) · Grade 9

Date Meet Event Result Place Rating Difficulty PR/SR Flags
2022-06-26 AAU Region 05 National Qualifier lj 8-04.00 -0.030
2022-06-26 AAU Region 05 National Qualifier 400m 1:27.9 15th · 2nd on team -0.030 SR
2022-03-13 AAU National Indoor Championships 60m 10.71 51st · 2nd on team -0.036
2022-03-13 AAU National Indoor Championships 400m 1:35.53 35th · 1st on team -0.036
2022-01-30 Track 757 Invitational 400m 1:38.02 42nd · 3rd on team -0.036
2022-01-30 Track 757 Invitational 60m 10.66 47th · 3rd on team -0.036 PR SR
2022-01-30 Track 757 Invitational 200m 39.92 41st · 3rd on team -0.036 SR
2021-12-19 Grant Holloway AAU Invitational 400m 1:33.06 28th · 3rd on team -0.036 SR
2021-12-19 Grant Holloway AAU Invitational 200m 41.76 47th · 4th on team -0.036 SR

2021 TF

Track 757 (VA) · Grade 8

Date Meet Event Result Place Rating Difficulty PR/SR Flags
2021-07-10 34th Cannonball Cooper Age Group Championship 200m 39.08 15th · 1st on team -0.027
2021-07-10 34th Cannonball Cooper Age Group Championship 100m 17.63 12th · 1st on team -0.027 ★PR SR
2021-07-03 F.I.A. Invitational 400m 1:33.13 4th · 1st on team -0.021
2021-07-03 F.I.A. Invitational 100m 18.86 16th · 3rd on team -0.021
2021-06-27 AAU Region 05 National Qualifier 400m 1:35.47 16th · 1st on team -0.027
2021-06-12 AAU Virginia Primary Championships 400m 1:27.78 11th · 1st on team -0.027
2021-06-12 AAU Virginia Primary Championships 200m 40.44 21st · 2nd on team -0.027
2021-06-05 Ptown Championship Series #4 400m 1:31.14 3rd · 2nd on team -0.029
2021-05-30 Mark Trail 200m 40.36 73rd · 2nd on team -0.032
2021-05-30 Mark Trail 400m 1:30.79 71st · 1st on team -0.032
2021-05-30 Mark Trail 100m 18.79 69th · 2nd on team -0.032
2021-05-22 P-Town Championship Series #3 400m 1:32.52 6th · 1st on team -0.029
2021-05-22 P-Town Championship Series #3 100m 18.38 24th · 3rd on team -0.029 PR SR
2021-05-15 P-Town Championship Series #2 400m 1:27.31 9th · 1st on team -0.029 ★PR SR
2021-05-01 P-Town Championship Series #1 200m 38.92 12th · 2nd on team -0.029 PR SR
2021-05-01 P-Town Championship Series #1 400m 1:28.63 5th · 1st on team -0.029 PR SR
2021-03-14 AAU Indoor National Championships 200m 40.13 31st · 4th on team -0.036
2021-03-14 AAU Indoor National Championships 60m 11.65 31st · 5th on team -0.036
2021-03-14 AAU Indoor National Championships 60m 11.3 28th · 4th on team -0.036
2021-01-31 The 757 Showdown 60m 12.66 12th · 4th on team -0.036
2021-01-03 Grant Holloway Holiday Invitational 200m 39.1 6th · 1st on team -0.036 PR SR
2021-01-03 Grant Holloway Holiday Invitational 60m 11.67 8th · 4th on team -0.036 PR SR
2021-01-03 Grant Holloway Holiday Invitational 60m 11.24 6th · 2nd on team -0.036 PR SR